createdAt,value
2022-10-11T00:00:00.778Z,91.90
2022-10-11T00:02:27.445Z,92.10
2022-10-11T00:04:54.272Z,91.90
2022-10-11T00:07:21.918Z,91.90
2022-10-11T00:09:48.706Z,91.70
2022-10-11T00:12:15.324Z,91.50
2022-10-11T00:14:42.944Z,91.10
2022-10-11T00:17:09.919Z,91.20
2022-10-11T00:19:36.676Z,91.20
2022-10-11T00:22:03.468Z,91.20
2022-10-11T00:24:30.308Z,90.90
2022-10-11T00:27:00.098Z,90.90
2022-10-11T00:29:26.833Z,91.10
2022-10-11T00:31:53.590Z,91.30
2022-10-11T00:34:20.513Z,91.60
2022-10-11T00:36:47.170Z,91.70
2022-10-11T00:39:14.613Z,91.80
2022-10-11T00:41:41.568Z,91.90
2022-10-11T00:44:16.045Z,91.90
2022-10-11T00:46:44.629Z,92.10
2022-10-11T00:49:24.444Z,92.00
2022-10-11T00:51:53.106Z,92.20
2022-10-11T00:54:22.260Z,92.40
2022-10-11T00:56:52.222Z,92.50
2022-10-11T00:59:21.090Z,93.20
2022-10-11T01:01:47.837Z,92.60
2022-10-11T01:04:14.545Z,92.50
2022-10-11T01:06:41.514Z,92.50
2022-10-11T01:09:08.432Z,92.40
2022-10-11T01:11:38.936Z,92.20
2022-10-11T01:14:14.442Z,92.00
2022-10-11T01:17:13.604Z,92.00
2022-10-11T01:19:52.345Z,92.00
2022-10-11T01:22:28.623Z,91.90
2022-10-11T01:25:15.412Z,91.80
2022-10-11T01:27:57.081Z,92.00
2022-10-11T01:30:31.848Z,92.10
2022-10-11T01:32:58.659Z,92.00
2022-10-11T01:35:26.374Z,91.80
2022-10-11T01:38:01.659Z,91.80
2022-10-11T01:40:42.018Z,92.10
2022-10-11T01:43:09.998Z,92.40
2022-10-11T01:45:38.459Z,92.90
2022-10-11T01:48:09.723Z,93.10
2022-10-11T01:50:39.139Z,93.30
2022-10-11T01:53:13.115Z,93.30
2022-10-11T01:55:45.998Z,93.30
2022-10-11T01:58:12.567Z,93.20
2022-10-11T02:00:51.873Z,93.40
2022-10-11T02:03:24.581Z,93.60
2022-10-11T02:06:01.205Z,93.70
2022-10-11T02:08:42.506Z,93.70
2022-10-11T02:11:30.338Z,93.70
2022-10-11T02:14:02.777Z,93.70
2022-10-11T02:16:50.975Z,93.60
2022-10-11T02:19:19.808Z,93.50
2022-10-11T02:21:49.205Z,93.50
2022-10-11T02:24:24.486Z,93.60
2022-10-11T02:26:54.641Z,93.60
2022-10-11T02:29:23.263Z,93.60
2022-10-11T02:31:50.979Z,93.50
2022-10-11T02:34:20.549Z,93.50
2022-10-11T02:37:05.839Z,93.50
2022-10-11T02:39:39.454Z,93.50
2022-10-11T02:42:09.617Z,93.50
2022-10-11T02:44:38.816Z,93.50
2022-10-11T02:47:05.946Z,93.30
2022-10-11T02:49:34.586Z,93.40
2022-10-11T02:52:03.239Z,93.40
2022-10-11T02:54:30.051Z,93.40
2022-10-11T02:56:56.717Z,93.30
2022-10-11T02:59:23.408Z,93.30
2022-10-11T03:01:50.163Z,93.30
2022-10-11T03:04:16.761Z,93.20
2022-10-11T03:06:43.324Z,93.30
2022-10-11T03:09:10.035Z,93.20
2022-10-11T03:11:36.766Z,93.20
2022-10-11T03:14:03.418Z,93.30
2022-10-11T03:16:30.183Z,93.50
2022-10-11T03:18:56.754Z,93.50
2022-10-11T03:21:25.200Z,93.60
2022-10-11T03:23:51.846Z,93.60
2022-10-11T03:26:19.629Z,93.70
2022-10-11T03:28:46.437Z,93.90
2022-10-11T03:31:13.140Z,93.90
2022-10-11T03:33:39.861Z,94.00
2022-10-11T03:36:07.232Z,93.90
2022-10-11T03:38:35.288Z,93.90
2022-10-11T03:41:01.951Z,93.90
2022-10-11T03:43:28.538Z,93.80
2022-10-11T03:46:00.364Z,93.90
2022-10-11T03:50:59.952Z,93.90
2022-10-11T03:56:07.366Z,93.90
2022-10-11T03:58:34.959Z,94.10
2022-10-11T04:01:01.640Z,94.40
2022-10-11T04:03:29.128Z,94.50
2022-10-11T04:05:55.727Z,94.50
2022-10-11T04:08:24.550Z,94.60
2022-10-11T04:10:51.362Z,94.50
2022-10-11T04:13:18.066Z,94.50
2022-10-11T04:15:44.696Z,94.50
2022-10-11T04:18:12.412Z,94.50
2022-10-11T04:20:39.016Z,94.40
2022-10-11T04:23:05.901Z,94.40
2022-10-11T04:25:32.610Z,94.40
2022-10-11T04:27:59.427Z,94.50
2022-10-11T04:30:25.988Z,94.50
2022-10-11T04:32:52.691Z,94.40
2022-10-11T04:35:19.483Z,94.50
2022-10-11T04:37:46.129Z,94.50
2022-10-11T04:40:13.023Z,94.50
2022-10-11T04:42:39.639Z,94.50
2022-10-11T04:45:07.550Z,94.50
2022-10-11T04:47:34.370Z,94.40
2022-10-11T04:50:01.181Z,94.40
2022-10-11T04:52:28.889Z,94.30
2022-10-11T04:54:55.693Z,94.30
2022-10-11T04:57:22.408Z,94.30
2022-10-11T04:59:50.332Z,94.20
2022-10-11T05:02:20.255Z,94.30
2022-10-11T05:04:47.014Z,94.20
2022-10-11T05:07:14.014Z,94.20
2022-10-11T05:09:40.584Z,94.10
2022-10-11T05:12:08.748Z,94.10
2022-10-11T05:14:35.446Z,94.10
2022-10-11T05:17:02.244Z,94.10
2022-10-11T05:19:28.909Z,94.10
2022-10-11T05:21:55.998Z,94.10
2022-10-11T05:24:23.120Z,94.10
2022-10-11T05:26:49.879Z,94.10
2022-10-11T05:29:16.552Z,94.20
2022-10-11T05:31:43.266Z,94.10
2022-10-11T05:34:09.962Z,94.10
2022-10-11T05:36:36.648Z,94.10
2022-10-11T05:39:03.538Z,94.10
2022-10-11T05:41:30.271Z,94.10
2022-10-11T05:43:56.877Z,94.00
2022-10-11T05:46:23.444Z,94.00
2022-10-11T05:48:50.086Z,94.00
2022-10-11T05:51:16.690Z,94.00
2022-10-11T05:53:43.480Z,94.00
2022-10-11T05:56:21.201Z,94.00
2022-10-11T05:58:48.453Z,93.90
2022-10-11T06:01:24.738Z,93.90
2022-10-11T06:03:51.509Z,93.90
2022-10-11T06:06:20.282Z,93.80
2022-10-11T06:08:47.831Z,93.80
2022-10-11T06:11:21.953Z,93.80
2022-10-11T06:13:48.757Z,93.80
2022-10-11T06:16:16.185Z,93.80
2022-10-11T06:18:42.847Z,93.90
2022-10-11T06:21:09.571Z,94.10
2022-10-11T06:23:37.508Z,94.20
2022-10-11T06:26:07.361Z,94.30
2022-10-11T06:28:35.686Z,94.30
2022-10-11T06:31:03.605Z,94.30
2022-10-11T06:33:31.246Z,94.10
2022-10-11T06:36:08.464Z,94.00
2022-10-11T06:38:35.265Z,93.90
2022-10-11T06:41:11.090Z,93.80
2022-10-11T06:43:37.915Z,93.80
2022-10-11T06:46:09.077Z,93.70
2022-10-11T06:48:39.137Z,93.80
2022-10-11T06:51:06.853Z,94.00
2022-10-11T06:53:33.587Z,93.90
2022-10-11T06:56:10.470Z,94.10
2022-10-11T06:58:47.368Z,94.00
2022-10-11T07:01:16.605Z,93.80
2022-10-11T07:03:45.744Z,93.40
2022-10-11T07:06:20.308Z,93.10
2022-10-11T07:08:47.114Z,92.80
2022-10-11T07:11:15.597Z,92.50
2022-10-11T07:13:42.244Z,93.00
2022-10-11T07:21:33.448Z,93.30
2022-10-11T07:24:01.840Z,93.50
2022-10-11T07:26:38.175Z,92.80
2022-10-11T07:29:08.100Z,92.90
2022-10-11T07:31:36.012Z,93.40
2022-10-11T08:19:58.064Z,88.00
2022-10-11T08:49:21.756Z,85.00
2022-10-11T08:59:56.781Z,84.80
2022-10-11T09:03:06.963Z,83.00
2022-10-11T09:10:59.194Z,82.20
2022-10-11T09:13:43.664Z,81.30
2022-10-11T09:21:28.467Z,81.30
2022-10-11T09:24:16.367Z,82.10
2022-10-11T09:26:51.722Z,82.20
2022-10-11T09:29:28.071Z,81.30
2022-10-11T09:31:55.939Z,81.30
2022-10-11T09:34:25.352Z,80.90
2022-10-11T09:36:54.835Z,80.90
2022-10-11T09:39:30.270Z,81.20
2022-10-11T09:41:58.052Z,80.50
2022-10-11T09:44:28.392Z,79.60
2022-10-11T09:46:55.956Z,80.40
2022-10-11T09:49:25.176Z,79.70
2022-10-11T09:51:53.412Z,79.00
2022-10-11T09:54:28.139Z,79.80
2022-10-11T09:56:55.152Z,79.80
2022-10-11T09:59:31.996Z,78.60
2022-10-11T10:02:10.965Z,78.00
2022-10-11T10:04:53.763Z,78.20
2022-10-11T10:07:20.892Z,76.70
2022-10-11T10:09:47.543Z,76.90
2022-10-11T10:12:15.217Z,76.50
2022-10-11T10:14:43.059Z,77.50
2022-10-11T10:17:17.057Z,77.90
2022-10-11T10:19:54.506Z,77.10
2022-10-11T10:22:27.550Z,75.30
2022-10-11T10:24:55.417Z,74.40
2022-10-11T10:27:22.280Z,76.10
2022-10-11T10:30:03.943Z,72.70
2022-10-11T10:32:36.812Z,72.40
2022-10-11T10:37:42.726Z,71.00
2022-10-11T10:40:13.199Z,72.00
2022-10-11T10:42:40.063Z,72.60
2022-10-11T10:45:12.564Z,72.60
2022-10-11T10:47:59.244Z,72.20
2022-10-11T10:50:26.515Z,72.60
2022-10-11T10:52:59.597Z,72.90
2022-10-11T10:55:26.246Z,71.50
2022-10-11T10:57:58.869Z,70.00
2022-10-11T11:00:27.305Z,71.70
2022-10-11T11:03:06.030Z,72.30
2022-10-11T11:05:35.648Z,71.80
2022-10-11T11:08:02.273Z,72.80
2022-10-11T11:10:35.123Z,72.80
2022-10-11T11:13:01.827Z,71.70
2022-10-11T11:15:38.332Z,73.30
2022-10-11T11:18:20.541Z,72.60
2022-10-11T11:20:59.575Z,72.90
2022-10-11T11:23:27.295Z,73.90
2022-10-11T11:26:26.505Z,73.90
2022-10-11T11:28:53.398Z,72.10
2022-10-11T11:31:29.269Z,72.20
2022-10-11T11:33:57.423Z,69.90
2022-10-11T11:36:45.554Z,71.00
2022-10-11T11:39:15.390Z,71.70
2022-10-11T11:41:48.150Z,71.70
2022-10-11T11:44:14.805Z,70.90
2022-10-11T11:46:44.582Z,71.20
2022-10-11T11:49:13.741Z,70.80
2022-10-11T11:51:43.042Z,70.50
2022-10-11T11:54:23.910Z,71.10
2022-10-11T11:56:50.846Z,70.50
2022-10-11T11:59:20.552Z,71.50
2022-10-11T12:02:02.335Z,70.10
2022-10-11T12:04:31.312Z,69.70
2022-10-11T12:07:15.992Z,69.60
2022-10-11T12:09:45.328Z,68.30
2022-10-11T12:12:31.676Z,67.70
2022-10-11T12:15:04.502Z,68.60
2022-10-11T12:17:32.005Z,69.50
2022-10-11T12:19:59.368Z,69.20
2022-10-11T12:22:30.159Z,69.00
2022-10-11T12:24:57.963Z,68.80
2022-10-11T12:27:39.654Z,67.30
2022-10-11T12:30:25.122Z,66.40
2022-10-11T12:33:02.725Z,66.00
2022-10-11T12:35:33.302Z,64.20
2022-10-11T12:38:18.887Z,65.70
2022-10-11T12:40:47.377Z,65.90
2022-10-11T12:43:14.054Z,65.90
2022-10-11T12:45:41.328Z,65.90
2022-10-11T12:48:21.555Z,65.50
2022-10-11T12:50:52.788Z,65.20
2022-10-11T12:53:22.281Z,66.50
2022-10-11T12:56:06.115Z,65.80
2022-10-11T12:58:39.123Z,65.20
2022-10-11T13:01:10.005Z,64.70
2022-10-11T13:03:44.633Z,64.40
2022-10-11T13:06:14.314Z,63.90
2022-10-11T13:08:43.102Z,63.90
2022-10-11T13:11:10.805Z,63.60
2022-10-11T13:13:39.468Z,63.60
2022-10-11T13:16:12.213Z,63.80
2022-10-11T13:18:41.351Z,63.20
2022-10-11T13:21:27.013Z,64.30
2022-10-11T13:24:04.651Z,65.70
2022-10-11T13:26:33.268Z,62.90
2022-10-11T13:29:00.840Z,63.10
2022-10-11T13:31:28.853Z,63.20
2022-10-11T13:33:56.561Z,64.70
2022-10-11T13:36:25.444Z,63.60
2022-10-11T13:38:56.689Z,63.40
2022-10-11T13:41:24.861Z,64.40
2022-10-11T13:43:51.852Z,63.60
2022-10-11T13:46:23.230Z,64.40
2022-10-11T13:49:03.149Z,66.00
2022-10-11T13:51:39.913Z,66.40
2022-10-11T13:54:10.491Z,65.70
2022-10-11T13:56:46.224Z,64.90
2022-10-11T13:59:23.691Z,64.80
2022-10-11T14:01:54.212Z,65.10
2022-10-11T14:04:22.577Z,65.60
2022-10-11T14:06:59.287Z,66.90
2022-10-11T14:09:36.677Z,67.60
2022-10-11T14:12:21.857Z,67.70
2022-10-11T14:14:49.611Z,66.10
2022-10-11T14:17:19.320Z,66.70
2022-10-11T14:19:48.502Z,66.70
2022-10-11T14:22:17.645Z,67.10
2022-10-11T14:24:47.298Z,67.60
2022-10-11T14:27:17.302Z,68.40
2022-10-11T14:29:55.630Z,68.10
2022-10-11T14:32:34.010Z,67.40
2022-10-11T14:35:03.291Z,67.60
2022-10-11T14:37:30.000Z,66.60
2022-10-11T14:39:56.648Z,67.20
2022-10-11T14:42:23.432Z,66.40
2022-10-11T14:44:50.260Z,66.80
2022-10-11T14:47:17.011Z,67.00
2022-10-11T14:49:43.824Z,66.70
2022-10-11T14:52:12.998Z,67.10
2022-10-11T14:54:40.062Z,67.90
2022-10-11T14:57:11.224Z,67.60
2022-10-11T14:59:38.243Z,68.20
2022-10-11T15:02:08.188Z,67.70
2022-10-11T15:04:34.742Z,67.50
2022-10-11T15:07:06.084Z,68.70
2022-10-11T15:09:35.942Z,68.80
2022-10-11T15:12:04.329Z,69.70
2022-10-11T15:14:33.144Z,70.20
2022-10-11T15:16:59.993Z,70.00
2022-10-11T15:19:26.972Z,70.60
2022-10-11T15:22:02.248Z,70.60
2022-10-11T15:24:31.109Z,71.20
2022-10-11T15:27:06.544Z,71.80
2022-10-11T15:29:33.382Z,72.10
2022-10-11T15:32:01.357Z,72.70
2022-10-11T15:34:28.240Z,72.90
2022-10-11T15:36:59.177Z,73.80
2022-10-11T15:39:37.162Z,73.70
2022-10-11T15:42:09.111Z,73.60
2022-10-11T15:44:38.947Z,74.20
2022-10-11T15:47:05.635Z,74.50
2022-10-11T15:49:32.515Z,74.90
2022-10-11T15:51:59.272Z,74.90
2022-10-11T15:54:26.061Z,75.40
2022-10-11T15:56:52.757Z,75.60
2022-10-11T15:59:19.576Z,75.60
2022-10-11T16:01:46.926Z,75.90
2022-10-11T16:04:13.822Z,76.50
2022-10-11T16:06:41.430Z,76.90
2022-10-11T16:09:08.102Z,77.30
2022-10-11T16:11:34.847Z,77.80
2022-10-11T16:14:01.640Z,77.80
2022-10-11T16:16:28.445Z,78.20
2022-10-11T16:18:55.332Z,78.70
2022-10-11T16:21:23.635Z,78.20
2022-10-11T16:23:50.218Z,78.60
2022-10-11T16:26:16.897Z,79.00
2022-10-11T16:28:43.743Z,79.00
2022-10-11T16:31:13.464Z,79.00
2022-10-11T16:33:48.098Z,78.80
2022-10-11T16:36:34.616Z,79.20
2022-10-11T16:39:03.345Z,79.30
2022-10-11T16:41:34.358Z,79.50
2022-10-11T16:44:01.128Z,79.30
2022-10-11T16:46:27.781Z,79.30
2022-10-11T16:48:58.780Z,79.70
2022-10-11T16:51:25.583Z,79.70
2022-10-11T16:53:53.122Z,79.80
2022-10-11T16:56:22.767Z,80.20
2022-10-11T16:58:49.553Z,81.10
2022-10-11T17:01:16.331Z,80.90
2022-10-11T17:03:43.131Z,80.90
2022-10-11T17:06:11.107Z,80.40
2022-10-11T17:08:37.931Z,80.70
2022-10-11T17:11:04.841Z,81.30
2022-10-11T17:13:31.991Z,81.30
2022-10-11T17:15:58.845Z,81.50
2022-10-11T17:18:26.646Z,81.60
2022-10-11T17:21:04.499Z,81.70
2022-10-11T17:23:31.514Z,81.50
2022-10-11T17:25:58.243Z,81.50
2022-10-11T17:28:28.943Z,82.10
2022-10-11T17:30:57.964Z,82.70
2022-10-11T17:33:26.330Z,83.20
2022-10-11T17:35:53.747Z,82.80
2022-10-11T17:38:22.378Z,82.90
2022-10-11T17:40:59.729Z,83.00
2022-10-11T17:43:27.641Z,82.60
2022-10-11T17:45:55.182Z,83.10
2022-10-11T17:48:21.855Z,83.30
2022-10-11T17:50:50.868Z,82.70
2022-10-11T17:53:19.010Z,82.90
2022-10-11T17:55:45.769Z,82.80
2022-10-11T17:58:12.537Z,82.80
2022-10-11T18:00:39.583Z,83.70
2022-10-11T18:03:07.067Z,83.40
2022-10-11T18:05:34.084Z,83.40
2022-10-11T18:08:04.126Z,82.60
2022-10-11T18:10:32.722Z,82.60
2022-10-11T18:13:03.059Z,82.40
2022-10-11T18:15:32.866Z,82.50
2022-10-11T18:18:00.107Z,82.20
2022-10-11T18:20:27.687Z,82.30
2022-10-11T18:22:54.629Z,82.60
2022-10-11T18:25:27.063Z,82.90
2022-10-11T18:27:53.884Z,82.60
2022-10-11T18:30:20.976Z,83.20
2022-10-11T18:32:48.974Z,83.60
2022-10-11T18:35:17.218Z,83.40
2022-10-11T18:37:44.998Z,83.70
2022-10-11T18:40:12.843Z,84.10
2022-10-11T18:42:40.494Z,83.90
2022-10-11T18:45:07.633Z,83.70
2022-10-11T18:47:34.285Z,84.00
2022-10-11T18:50:01.987Z,84.10
2022-10-11T18:52:28.650Z,83.90
2022-10-11T18:54:55.551Z,84.60
2022-10-11T18:57:24.282Z,85.20
2022-10-11T18:59:52.438Z,84.60
2022-10-11T19:02:19.085Z,84.90
2022-10-11T19:04:45.811Z,85.70
2022-10-11T19:07:12.686Z,85.50
2022-10-11T19:09:39.560Z,86.10
2022-10-11T19:12:06.586Z,85.90
2022-10-11T19:14:33.475Z,85.90
2022-10-11T19:17:00.201Z,85.60
2022-10-11T19:19:27.894Z,86.00
2022-10-11T19:21:54.570Z,85.60
2022-10-11T19:24:22.573Z,85.30
2022-10-11T19:26:49.557Z,85.60
2022-10-11T19:29:21.338Z,85.30
2022-10-11T19:31:49.316Z,85.30
2022-10-11T19:34:16.611Z,85.30
2022-10-11T19:36:45.438Z,86.10
2022-10-11T19:39:14.973Z,86.20
2022-10-11T19:41:42.023Z,86.10
2022-10-11T19:44:09.123Z,86.20
2022-10-11T19:46:51.107Z,86.60
2022-10-11T19:49:21.481Z,86.40
2022-10-11T19:51:48.197Z,86.50
2022-10-11T19:54:15.120Z,87.50
2022-10-11T19:56:43.890Z,87.40
2022-10-11T19:59:11.280Z,87.30
2022-10-11T20:01:38.392Z,87.70
2022-10-11T20:04:07.355Z,87.40
2022-10-11T20:06:38.262Z,87.30
2022-10-11T20:09:28.391Z,87.70
2022-10-11T20:11:54.854Z,87.70
2022-10-11T20:14:21.581Z,88.00
2022-10-11T20:16:49.964Z,88.10
2022-10-11T20:19:17.183Z,88.10
2022-10-11T20:21:44.085Z,88.20
2022-10-11T20:24:11.992Z,88.20
2022-10-11T20:26:39.405Z,88.00
2022-10-11T20:29:06.888Z,88.10
2022-10-11T20:31:38.109Z,88.10
2022-10-11T20:34:07.512Z,87.90
2022-10-11T20:36:35.923Z,87.90
2022-10-11T20:39:04.452Z,88.20
2022-10-11T20:41:32.820Z,88.00
2022-10-11T20:44:00.150Z,87.90
2022-10-11T20:46:29.976Z,87.90
2022-10-11T20:49:01.591Z,88.00
2022-10-11T20:51:31.799Z,87.90
2022-10-11T20:53:59.047Z,87.70
2022-10-11T20:56:25.747Z,87.70
2022-10-11T20:58:53.032Z,87.60
2022-10-11T21:01:20.805Z,87.50
2022-10-11T21:03:47.543Z,87.30
2022-10-11T21:06:14.381Z,87.60
2022-10-11T21:08:44.528Z,87.50
2022-10-11T21:11:12.838Z,87.60
2022-10-11T21:13:39.522Z,87.40
2022-10-11T21:16:07.987Z,87.60
2022-10-11T21:18:34.653Z,87.70
2022-10-11T21:21:05.013Z,87.80
2022-10-11T21:23:31.824Z,87.80
2022-10-11T21:26:02.281Z,87.60
2022-10-11T21:28:29.647Z,88.10
2022-10-11T21:31:02.174Z,88.00
2022-10-11T21:33:30.390Z,87.90
2022-10-11T21:35:57.501Z,87.70
2022-10-11T21:38:24.259Z,87.90
2022-10-11T21:40:54.460Z,87.90
2022-10-11T21:43:21.165Z,87.90
2022-10-11T21:45:59.450Z,88.10
2022-10-11T21:48:32.057Z,88.00
2022-10-11T21:50:58.714Z,88.00
2022-10-11T21:53:25.515Z,87.90
2022-10-11T21:55:56.656Z,88.30
2022-10-11T21:58:23.225Z,88.30
2022-10-11T22:00:49.995Z,88.30
2022-10-11T22:03:16.704Z,88.50
2022-10-11T22:05:46.881Z,88.50
2022-10-11T22:08:14.466Z,89.00
2022-10-11T22:10:44.937Z,89.20
2022-10-11T22:13:11.570Z,89.10
2022-10-11T22:15:39.283Z,89.10
2022-10-11T22:18:05.871Z,88.90
2022-10-11T22:20:33.037Z,89.10
2022-10-11T22:23:00.934Z,89.00
2022-10-11T22:25:27.577Z,89.20
2022-10-11T22:27:55.525Z,89.20
2022-10-11T22:30:22.208Z,89.20
2022-10-11T22:32:50.318Z,89.40
2022-10-11T22:35:16.946Z,89.40
2022-10-11T22:37:43.955Z,89.20
2022-10-11T22:40:10.610Z,89.10
2022-10-11T22:42:37.267Z,89.00
2022-10-11T22:45:06.172Z,89.20
2022-10-11T22:47:32.770Z,89.30
2022-10-11T22:49:59.360Z,89.50
2022-10-11T22:52:26.187Z,89.10
2022-10-11T22:54:52.863Z,89.30
2022-10-11T22:57:19.474Z,89.50
2022-10-11T22:59:47.367Z,89.30
2022-10-11T23:02:15.249Z,89.30
2022-10-11T23:04:41.990Z,89.40
2022-10-11T23:07:08.735Z,89.70
2022-10-11T23:09:35.315Z,89.90
2022-10-11T23:12:01.960Z,90.00
2022-10-11T23:14:28.520Z,90.40
2022-10-11T23:16:55.327Z,90.50
2022-10-11T23:19:22.029Z,90.40
2022-10-11T23:21:48.718Z,90.60
2022-10-11T23:24:15.370Z,90.60
2022-10-11T23:26:42.115Z,90.80
2022-10-11T23:29:08.827Z,90.90
2022-10-11T23:31:35.491Z,90.80
2022-10-11T23:34:02.229Z,91.40
2022-10-11T23:36:28.890Z,91.40
2022-10-11T23:38:57.351Z,91.60
2022-10-11T23:41:24.970Z,91.70
2022-10-11T23:43:51.798Z,91.60
2022-10-11T23:46:18.590Z,91.50
2022-10-11T23:48:45.194Z,91.40
2022-10-11T23:51:13.267Z,91.40
2022-10-11T23:53:40.104Z,91.40
2022-10-11T23:56:07.201Z,91.30
2022-10-11T23:58:36.424Z,91.30
